sensor_id;sensor_type;location;lat;lon;timestamp;P1;durP1;ratioP1;P2;durP2;ratioP2
1995;SDS011;38556;47.068;15.408;2023-03-08T00:00:02;39.60;;;34.72;;
1995;SDS011;38556;47.068;15.408;2023-03-08T00:02:31;38.88;;;34.90;;
1995;SDS011;38556;47.068;15.408;2023-03-08T00:04:59;41.47;;;37.08;;
1995;SDS011;38556;47.068;15.408;2023-03-08T00:07:27;39.58;;;35.47;;
1995;SDS011;38556;47.068;15.408;2023-03-08T00:09:54;39.83;;;35.67;;
1995;SDS011;38556;47.068;15.408;2023-03-08T00:12:23;44.67;;;39.88;;
1995;SDS011;38556;47.068;15.408;2023-03-08T00:14:51;44.90;;;40.10;;
1995;SDS011;38556;47.068;15.408;2023-03-08T00:17:18;44.97;;;40.17;;
1995;SDS011;38556;47.068;15.408;2023-03-08T00:19:45;45.72;;;40.85;;
1995;SDS011;38556;47.068;15.408;2023-03-08T00:22:12;43.83;;;39.28;;
1995;SDS011;38556;47.068;15.408;2023-03-08T00:24:39;49.25;;;42.72;;
1995;SDS011;38556;47.068;15.408;2023-03-08T00:27:07;44.13;;;39.35;;
1995;SDS011;38556;47.068;15.408;2023-03-08T00:29:35;47.22;;;42.17;;
1995;SDS011;38556;47.068;15.408;2023-03-08T00:32:03;45.05;;;39.72;;
1995;SDS011;38556;47.068;15.408;2023-03-08T00:34:30;43.90;;;39.05;;
1995;SDS011;38556;47.068;15.408;2023-03-08T00:36:57;46.67;;;39.70;;
1995;SDS011;38556;47.068;15.408;2023-03-08T00:39:24;45.58;;;40.80;;
1995;SDS011;38556;47.068;15.408;2023-03-08T00:41:52;46.72;;;41.88;;
1995;SDS011;38556;47.068;15.408;2023-03-08T00:44:19;45.08;;;40.47;;
1995;SDS011;38556;47.068;15.408;2023-03-08T00:46:48;46.47;;;41.47;;
1995;SDS011;38556;47.068;15.408;2023-03-08T00:49:15;47.58;;;42.55;;
1995;SDS011;38556;47.068;15.408;2023-03-08T00:51:43;48.40;;;43.40;;
1995;SDS011;38556;47.068;15.408;2023-03-08T00:54:10;50.28;;;43.70;;
1995;SDS011;38556;47.068;15.408;2023-03-08T00:56:37;47.10;;;42.13;;
1995;SDS011;38556;47.068;15.408;2023-03-08T00:59:05;46.20;;;41.60;;
1995;SDS011;38556;47.068;15.408;2023-03-08T01:01:32;45.30;;;40.90;;
1995;SDS011;38556;47.068;15.408;2023-03-08T01:04:01;47.30;;;42.40;;
1995;SDS011;38556;47.068;15.408;2023-03-08T01:06:28;48.35;;;43.20;;
1995;SDS011;38556;47.068;15.408;2023-03-08T01:08:55;46.88;;;41.88;;
1995;SDS011;38556;47.068;15.408;2023-03-08T01:11:24;46.88;;;42.08;;
1995;SDS011;38556;47.068;15.408;2023-03-08T01:13:52;48.20;;;40.20;;
1995;SDS011;38556;47.068;15.408;2023-03-08T01:16:21;50.65;;;44.03;;
1995;SDS011;38556;47.068;15.408;2023-03-08T01:18:49;48.20;;;43.05;;
1995;SDS011;38556;47.068;15.408;2023-03-08T01:21:18;46.92;;;41.90;;
1995;SDS011;38556;47.068;15.408;2023-03-08T01:23:45;49.17;;;43.85;;
1995;SDS011;38556;47.068;15.408;2023-03-08T01:26:13;49.17;;;42.42;;
1995;SDS011;38556;47.068;15.408;2023-03-08T01:28:42;51.17;;;44.97;;
1995;SDS011;38556;47.068;15.408;2023-03-08T01:31:10;54.70;;;45.70;;
1995;SDS011;38556;47.068;15.408;2023-03-08T01:33:40;52.42;;;45.70;;
1995;SDS011;38556;47.068;15.408;2023-03-08T01:36:08;55.35;;;45.53;;
1995;SDS011;38556;47.068;15.408;2023-03-08T01:38:38;49.85;;;44.47;;
1995;SDS011;38556;47.068;15.408;2023-03-08T01:41:06;52.97;;;47.10;;
1995;SDS011;38556;47.068;15.408;2023-03-08T01:43:39;51.08;;;45.42;;
1995;SDS011;38556;47.068;15.408;2023-03-08T01:46:10;54.25;;;46.60;;
1995;SDS011;38556;47.068;15.408;2023-03-08T01:48:44;50.58;;;44.40;;
1995;SDS011;38556;47.068;15.408;2023-03-08T01:51:16;49.63;;;44.58;;
1995;SDS011;38556;47.068;15.408;2023-03-08T01:53:49;48.65;;;43.63;;
1995;SDS011;38556;47.068;15.408;2023-03-08T01:56:17;53.97;;;47.05;;
1995;SDS011;38556;47.068;15.408;2023-03-08T01:58:46;48.65;;;43.65;;
1995;SDS011;38556;47.068;15.408;2023-03-08T02:01:15;54.72;;;44.80;;
1995;SDS011;38556;47.068;15.408;2023-03-08T02:03:43;53.92;;;46.95;;
1995;SDS011;38556;47.068;15.408;2023-03-08T02:06:11;56.20;;;46.13;;
1995;SDS011;38556;47.068;15.408;2023-03-08T02:08:40;49.42;;;43.92;;
1995;SDS011;38556;47.068;15.408;2023-03-08T02:11:09;52.13;;;46.60;;
1995;SDS011;38556;47.068;15.408;2023-03-08T02:13:37;53.95;;;48.03;;
1995;SDS011;38556;47.068;15.408;2023-03-08T02:16:06;49.13;;;43.78;;
1995;SDS011;38556;47.068;15.408;2023-03-08T02:18:35;49.95;;;44.50;;
1995;SDS011;38556;47.068;15.408;2023-03-08T02:21:02;50.47;;;45.08;;
1995;SDS011;38556;47.068;15.408;2023-03-08T02:23:31;49.08;;;44.08;;
1995;SDS011;38556;47.068;15.408;2023-03-08T02:25:59;48.95;;;44.05;;
1995;SDS011;38556;47.068;15.408;2023-03-08T02:28:30;50.90;;;45.53;;
1995;SDS011;38556;47.068;15.408;2023-03-08T02:30:59;49.78;;;44.40;;
1995;SDS011;38556;47.068;15.408;2023-03-08T02:33:26;51.22;;;45.67;;
1995;SDS011;38556;47.068;15.408;2023-03-08T02:35:55;48.70;;;43.83;;
1995;SDS011;38556;47.068;15.408;2023-03-08T02:38:22;49.47;;;44.05;;
1995;SDS011;38556;47.068;15.408;2023-03-08T02:40:51;50.13;;;44.83;;
1995;SDS011;38556;47.068;15.408;2023-03-08T02:43:18;52.97;;;46.42;;
1995;SDS011;38556;47.068;15.408;2023-03-08T02:45:46;49.70;;;44.58;;
1995;SDS011;38556;47.068;15.408;2023-03-08T02:48:14;56.30;;;47.50;;
1995;SDS011;38556;47.068;15.408;2023-03-08T02:50:41;49.85;;;44.70;;
1995;SDS011;38556;47.068;15.408;2023-03-08T02:53:09;54.10;;;48.22;;
1995;SDS011;38556;47.068;15.408;2023-03-08T02:55:36;56.22;;;50.42;;
1995;SDS011;38556;47.068;15.408;2023-03-08T02:58:06;51.90;;;46.40;;
1995;SDS011;38556;47.068;15.408;2023-03-08T03:00:36;50.28;;;44.60;;
1995;SDS011;38556;47.068;15.408;2023-03-08T03:03:04;51.13;;;45.78;;
1995;SDS011;38556;47.068;15.408;2023-03-08T03:05:31;49.60;;;43.80;;
1995;SDS011;38556;47.068;15.408;2023-03-08T03:07:58;51.00;;;45.10;;
1995;SDS011;38556;47.068;15.408;2023-03-08T03:10:26;49.85;;;43.95;;
1995;SDS011;38556;47.068;15.408;2023-03-08T03:12:53;49.83;;;44.70;;
1995;SDS011;38556;47.068;15.408;2023-03-08T03:15:21;50.45;;;45.10;;
1995;SDS011;38556;47.068;15.408;2023-03-08T03:17:49;51.15;;;45.90;;
1995;SDS011;38556;47.068;15.408;2023-03-08T03:20:16;49.55;;;44.40;;
1995;SDS011;38556;47.068;15.408;2023-03-08T03:22:44;48.67;;;43.70;;
1995;SDS011;38556;47.068;15.408;2023-03-08T03:25:12;51.30;;;45.78;;
1995;SDS011;38556;47.068;15.408;2023-03-08T03:27:39;49.40;;;44.40;;
1995;SDS011;38556;47.068;15.408;2023-03-08T03:30:07;49.58;;;44.53;;
1995;SDS011;38556;47.068;15.408;2023-03-08T03:32:37;53.72;;;47.97;;
1995;SDS011;38556;47.068;15.408;2023-03-08T03:35:05;50.42;;;45.25;;
1995;SDS011;38556;47.068;15.408;2023-03-08T03:37:32;51.20;;;45.92;;
1995;SDS011;38556;47.068;15.408;2023-03-08T03:40:01;51.67;;;46.28;;
1995;SDS011;38556;47.068;15.408;2023-03-08T03:42:28;51.15;;;45.78;;
1995;SDS011;38556;47.068;15.408;2023-03-08T03:44:56;48.85;;;43.75;;
1995;SDS011;38556;47.068;15.408;2023-03-08T03:47:23;48.95;;;43.75;;
1995;SDS011;38556;47.068;15.408;2023-03-08T03:49:52;49.80;;;44.75;;
1995;SDS011;38556;47.068;15.408;2023-03-08T03:52:19;51.70;;;45.90;;
1995;SDS011;38556;47.068;15.408;2023-03-08T03:54:46;51.50;;;45.72;;
1995;SDS011;38556;47.068;15.408;2023-03-08T03:57:13;50.53;;;45.42;;
1995;SDS011;38556;47.068;15.408;2023-03-08T03:59:41;49.53;;;44.63;;
1995;SDS011;38556;47.068;15.408;2023-03-08T04:02:08;49.75;;;44.45;;
1995;SDS011;38556;47.068;15.408;2023-03-08T04:04:36;50.83;;;45.47;;
1995;SDS011;38556;47.068;15.408;2023-03-08T04:07:04;51.50;;;46.33;;
1995;SDS011;38556;47.068;15.408;2023-03-08T04:09:31;48.53;;;43.85;;
1995;SDS011;38556;47.068;15.408;2023-03-08T04:11:59;47.45;;;42.35;;
1995;SDS011;38556;47.068;15.408;2023-03-08T04:14:29;49.33;;;44.13;;
1995;SDS011;38556;47.068;15.408;2023-03-08T04:16:57;47.67;;;43.05;;
1995;SDS011;38556;47.068;15.408;2023-03-08T04:19:24;49.90;;;44.38;;
1995;SDS011;38556;47.068;15.408;2023-03-08T04:21:51;47.65;;;42.95;;
1995;SDS011;38556;47.068;15.408;2023-03-08T04:24:20;52.63;;;46.95;;
1995;SDS011;38556;47.068;15.408;2023-03-08T04:26:47;53.95;;;45.35;;
1995;SDS011;38556;47.068;15.408;2023-03-08T04:29:15;47.10;;;42.05;;
1995;SDS011;38556;47.068;15.408;2023-03-08T04:31:42;49.50;;;44.38;;
1995;SDS011;38556;47.068;15.408;2023-03-08T04:34:10;57.00;;;47.63;;
1995;SDS011;38556;47.068;15.408;2023-03-08T04:36:37;59.42;;;51.58;;
1995;SDS011;38556;47.068;15.408;2023-03-08T04:39:04;50.95;;;45.42;;
1995;SDS011;38556;47.068;15.408;2023-03-08T04:41:33;51.92;;;46.50;;
1995;SDS011;38556;47.068;15.408;2023-03-08T04:44:00;49.05;;;43.95;;
1995;SDS011;38556;47.068;15.408;2023-03-08T04:46:27;45.20;;;40.80;;
1995;SDS011;38556;47.068;15.408;2023-03-08T04:48:55;49.63;;;44.30;;
1995;SDS011;38556;47.068;15.408;2023-03-08T04:51:22;49.90;;;43.90;;
1995;SDS011;38556;47.068;15.408;2023-03-08T04:53:51;51.60;;;45.30;;
1995;SDS011;38556;47.068;15.408;2023-03-08T04:56:19;52.95;;;45.13;;
1995;SDS011;38556;47.068;15.408;2023-03-08T04:58:48;52.28;;;43.83;;
1995;SDS011;38556;47.068;15.408;2023-03-08T05:01:16;47.88;;;42.92;;
1995;SDS011;38556;47.068;15.408;2023-03-08T05:03:44;48.70;;;43.70;;
1995;SDS011;38556;47.068;15.408;2023-03-08T05:06:13;48.40;;;43.72;;
1995;SDS011;38556;47.068;15.408;2023-03-08T05:08:42;48.83;;;43.78;;
1995;SDS011;38556;47.068;15.408;2023-03-08T05:11:09;45.00;;;40.67;;
1995;SDS011;38556;47.068;15.408;2023-03-08T05:13:42;46.30;;;41.83;;
1995;SDS011;38556;47.068;15.408;2023-03-08T05:16:11;48.75;;;43.78;;
1995;SDS011;38556;47.068;15.408;2023-03-08T05:18:38;47.03;;;42.45;;
1995;SDS011;38556;47.068;15.408;2023-03-08T05:21:06;47.00;;;42.13;;
1995;SDS011;38556;47.068;15.408;2023-03-08T05:23:36;46.97;;;42.55;;
1995;SDS011;38556;47.068;15.408;2023-03-08T05:26:04;47.50;;;42.70;;
1995;SDS011;38556;47.068;15.408;2023-03-08T05:28:33;49.28;;;42.47;;
1995;SDS011;38556;47.068;15.408;2023-03-08T05:31:02;48.92;;;44.10;;
1995;SDS011;38556;47.068;15.408;2023-03-08T05:33:32;46.33;;;41.63;;
1995;SDS011;38556;47.068;15.408;2023-03-08T05:36:01;48.72;;;43.92;;
1995;SDS011;38556;47.068;15.408;2023-03-08T05:38:28;49.05;;;43.95;;
1995;SDS011;38556;47.068;15.408;2023-03-08T05:40:58;48.13;;;43.42;;
1995;SDS011;38556;47.068;15.408;2023-03-08T05:43:27;49.47;;;44.17;;
1995;SDS011;38556;47.068;15.408;2023-03-08T05:45:54;49.92;;;44.83;;
1995;SDS011;38556;47.068;15.408;2023-03-08T05:48:23;49.55;;;42.22;;
1995;SDS011;38556;47.068;15.408;2023-03-08T05:50:51;49.13;;;43.92;;
1995;SDS011;38556;47.068;15.408;2023-03-08T05:53:19;49.25;;;44.08;;
1995;SDS011;38556;47.068;15.408;2023-03-08T05:55:47;48.58;;;43.53;;
1995;SDS011;38556;47.068;15.408;2023-03-08T05:58:15;49.40;;;44.33;;
1995;SDS011;38556;47.068;15.408;2023-03-08T06:00:42;45.80;;;41.45;;
1995;SDS011;38556;47.068;15.408;2023-03-08T06:03:10;47.90;;;43.15;;
1995;SDS011;38556;47.068;15.408;2023-03-08T06:05:37;49.95;;;44.90;;
1995;SDS011;38556;47.068;15.408;2023-03-08T06:08:05;50.65;;;45.35;;
1995;SDS011;38556;47.068;15.408;2023-03-08T06:10:33;53.25;;;45.83;;
1995;SDS011;38556;47.068;15.408;2023-03-08T06:13:00;53.53;;;47.78;;
1995;SDS011;38556;47.068;15.408;2023-03-08T06:15:28;52.67;;;46.80;;
1995;SDS011;38556;47.068;15.408;2023-03-08T06:17:56;49.65;;;44.45;;
1995;SDS011;38556;47.068;15.408;2023-03-08T06:20:23;48.45;;;43.28;;
1995;SDS011;38556;47.068;15.408;2023-03-08T06:22:51;50.65;;;45.35;;
1995;SDS011;38556;47.068;15.408;2023-03-08T06:25:19;48.63;;;43.47;;
1995;SDS011;38556;47.068;15.408;2023-03-08T06:27:46;49.83;;;44.42;;
1995;SDS011;38556;47.068;15.408;2023-03-08T06:30:14;47.35;;;42.38;;
1995;SDS011;38556;47.068;15.408;2023-03-08T06:32:42;50.85;;;45.42;;
1995;SDS011;38556;47.068;15.408;2023-03-08T06:35:09;54.50;;;45.83;;
1995;SDS011;38556;47.068;15.408;2023-03-08T06:37:36;48.72;;;43.80;;
1995;SDS011;38556;47.068;15.408;2023-03-08T06:40:04;52.67;;;46.70;;
1995;SDS011;38556;47.068;15.408;2023-03-08T06:42:34;50.20;;;45.40;;
1995;SDS011;38556;47.068;15.408;2023-03-08T06:45:02;49.00;;;43.70;;
1995;SDS011;38556;47.068;15.408;2023-03-08T06:47:30;55.55;;;49.45;;
1995;SDS011;38556;47.068;15.408;2023-03-08T06:49:57;52.38;;;45.53;;
1995;SDS011;38556;47.068;15.408;2023-03-08T06:52:24;48.58;;;43.55;;
1995;SDS011;38556;47.068;15.408;2023-03-08T06:54:51;51.58;;;46.30;;
1995;SDS011;38556;47.068;15.408;2023-03-08T06:57:19;50.33;;;44.92;;
1995;SDS011;38556;47.068;15.408;2023-03-08T06:59:47;48.35;;;43.95;;
1995;SDS011;38556;47.068;15.408;2023-03-08T07:02:15;48.60;;;43.83;;
1995;SDS011;38556;47.068;15.408;2023-03-08T07:04:42;47.95;;;43.05;;
1995;SDS011;38556;47.068;15.408;2023-03-08T07:07:10;56.17;;;47.42;;
1995;SDS011;38556;47.068;15.408;2023-03-08T07:09:37;48.47;;;43.33;;
1995;SDS011;38556;47.068;15.408;2023-03-08T07:12:05;50.80;;;45.47;;
1995;SDS011;38556;47.068;15.408;2023-03-08T07:14:32;52.05;;;46.53;;
1995;SDS011;38556;47.068;15.408;2023-03-08T07:17:01;50.70;;;45.22;;
1995;SDS011;38556;47.068;15.408;2023-03-08T07:19:28;46.58;;;42.00;;
1995;SDS011;38556;47.068;15.408;2023-03-08T07:21:57;49.22;;;44.28;;
1995;SDS011;38556;47.068;15.408;2023-03-08T07:24:24;48.95;;;44.28;;
1995;SDS011;38556;47.068;15.408;2023-03-08T07:26:51;50.25;;;44.90;;
1995;SDS011;38556;47.068;15.408;2023-03-08T07:29:19;50.70;;;43.25;;
1995;SDS011;38556;47.068;15.408;2023-03-08T07:31:46;48.92;;;44.13;;
1995;SDS011;38556;47.068;15.408;2023-03-08T07:34:15;49.80;;;45.10;;
1995;SDS011;38556;47.068;15.408;2023-03-08T07:36:42;51.30;;;46.03;;
1995;SDS011;38556;47.068;15.408;2023-03-08T07:39:09;51.90;;;46.35;;
1995;SDS011;38556;47.068;15.408;2023-03-08T07:41:37;49.67;;;44.55;;
1995;SDS011;38556;47.068;15.408;2023-03-08T07:44:04;52.17;;;46.55;;
1995;SDS011;38556;47.068;15.408;2023-03-08T07:46:31;51.28;;;45.92;;
1995;SDS011;38556;47.068;15.408;2023-03-08T07:48:58;51.88;;;46.70;;
1995;SDS011;38556;47.068;15.408;2023-03-08T07:51:27;50.28;;;44.85;;
1995;SDS011;38556;47.068;15.408;2023-03-08T07:53:54;50.38;;;45.28;;
1995;SDS011;38556;47.068;15.408;2023-03-08T07:56:22;46.55;;;42.25;;
1995;SDS011;38556;47.068;15.408;2023-03-08T07:58:49;50.70;;;45.45;;
1995;SDS011;38556;47.068;15.408;2023-03-08T08:01:17;48.85;;;43.90;;
1995;SDS011;38556;47.068;15.408;2023-03-08T08:03:44;49.33;;;44.17;;
1995;SDS011;38556;47.068;15.408;2023-03-08T08:06:11;45.45;;;41.45;;
1995;SDS011;38556;47.068;15.408;2023-03-08T08:08:40;49.95;;;44.60;;
1995;SDS011;38556;47.068;15.408;2023-03-08T08:11:11;48.70;;;44.25;;
1995;SDS011;38556;47.068;15.408;2023-03-08T08:13:39;47.15;;;42.60;;
1995;SDS011;38556;47.068;15.408;2023-03-08T08:16:06;45.10;;;41.17;;
1995;SDS011;38556;47.068;15.408;2023-03-08T08:18:34;45.13;;;40.97;;
1995;SDS011;38556;47.068;15.408;2023-03-08T08:21:02;44.60;;;40.35;;
1995;SDS011;38556;47.068;15.408;2023-03-08T08:23:30;42.40;;;38.30;;
1995;SDS011;38556;47.068;15.408;2023-03-08T08:25:59;53.08;;;48.10;;
1995;SDS011;38556;47.068;15.408;2023-03-08T08:28:30;45.17;;;40.78;;
1995;SDS011;38556;47.068;15.408;2023-03-08T08:30:58;43.10;;;38.88;;
1995;SDS011;38556;47.068;15.408;2023-03-08T08:33:27;41.53;;;37.85;;
1995;SDS011;38556;47.068;15.408;2023-03-08T08:35:58;41.17;;;37.30;;
1995;SDS011;38556;47.068;15.408;2023-03-08T08:38:26;41.80;;;37.85;;
1995;SDS011;38556;47.068;15.408;2023-03-08T08:40:53;39.38;;;36.08;;
1995;SDS011;38556;47.068;15.408;2023-03-08T08:43:22;40.22;;;35.92;;
1995;SDS011;38556;47.068;15.408;2023-03-08T08:45:52;41.65;;;37.67;;
1995;SDS011;38556;47.068;15.408;2023-03-08T08:48:21;41.60;;;37.72;;
1995;SDS011;38556;47.068;15.408;2023-03-08T08:50:49;42.40;;;38.85;;
1995;SDS011;38556;47.068;15.408;2023-03-08T08:53:17;40.25;;;36.67;;
1995;SDS011;38556;47.068;15.408;2023-03-08T08:55:44;39.72;;;36.03;;
1995;SDS011;38556;47.068;15.408;2023-03-08T08:58:12;42.65;;;38.97;;
1995;SDS011;38556;47.068;15.408;2023-03-08T09:00:41;40.35;;;36.85;;
1995;SDS011;38556;47.068;15.408;2023-03-08T09:03:09;42.92;;;38.70;;
1995;SDS011;38556;47.068;15.408;2023-03-08T09:05:37;41.13;;;37.63;;
1995;SDS011;38556;47.068;15.408;2023-03-08T09:08:06;40.45;;;36.78;;
1995;SDS011;38556;47.068;15.408;2023-03-08T09:10:35;39.17;;;35.42;;
1995;SDS011;38556;47.068;15.408;2023-03-08T09:13:04;39.60;;;36.22;;
1995;SDS011;38556;47.068;15.408;2023-03-08T09:15:33;41.13;;;37.38;;
1995;SDS011;38556;47.068;15.408;2023-03-08T09:18:03;40.33;;;36.83;;
1995;SDS011;38556;47.068;15.408;2023-03-08T09:20:30;38.47;;;34.90;;
1995;SDS011;38556;47.068;15.408;2023-03-08T09:22:58;36.28;;;33.42;;
1995;SDS011;38556;47.068;15.408;2023-03-08T09:25:25;34.95;;;32.20;;
1995;SDS011;38556;47.068;15.408;2023-03-08T09:27:53;37.95;;;34.65;;
1995;SDS011;38556;47.068;15.408;2023-03-08T09:30:20;37.83;;;34.83;;
1995;SDS011;38556;47.068;15.408;2023-03-08T09:32:48;37.70;;;34.45;;
1995;SDS011;38556;47.068;15.408;2023-03-08T09:35:16;36.92;;;33.92;;
1995;SDS011;38556;47.068;15.408;2023-03-08T09:37:44;36.42;;;33.53;;
1995;SDS011;38556;47.068;15.408;2023-03-08T09:40:16;36.53;;;33.67;;
1995;SDS011;38556;47.068;15.408;2023-03-08T09:42:46;39.25;;;36.22;;
1995;SDS011;38556;47.068;15.408;2023-03-08T09:45:19;36.30;;;33.20;;
1995;SDS011;38556;47.068;15.408;2023-03-08T09:47:51;37.20;;;34.15;;
1995;SDS011;38556;47.068;15.408;2023-03-08T09:50:29;35.10;;;32.17;;
1995;SDS011;38556;47.068;15.408;2023-03-08T09:53:03;33.95;;;31.05;;
1995;SDS011;38556;47.068;15.408;2023-03-08T09:55:37;35.38;;;32.53;;
1995;SDS011;38556;47.068;15.408;2023-03-08T09:58:15;36.40;;;33.45;;
1995;SDS011;38556;47.068;15.408;2023-03-08T10:00:48;33.67;;;30.98;;
1995;SDS011;38556;47.068;15.408;2023-03-08T10:03:23;34.15;;;31.48;;
1995;SDS011;38556;47.068;15.408;2023-03-08T10:06:09;35.25;;;32.30;;
1995;SDS011;38556;47.068;15.408;2023-03-08T10:08:43;35.35;;;32.22;;
1995;SDS011;38556;47.068;15.408;2023-03-08T10:11:19;34.97;;;32.03;;
1995;SDS011;38556;47.068;15.408;2023-03-08T10:13:53;34.83;;;32.05;;
1995;SDS011;38556;47.068;15.408;2023-03-08T10:16:23;35.13;;;32.38;;
1995;SDS011;38556;47.068;15.408;2023-03-08T10:18:54;38.25;;;34.55;;
1995;SDS011;38556;47.068;15.408;2023-03-08T10:21:27;36.30;;;33.28;;
1995;SDS011;38556;47.068;15.408;2023-03-08T10:23:58;37.40;;;34.38;;
1995;SDS011;38556;47.068;15.408;2023-03-08T10:26:27;38.20;;;34.80;;
1995;SDS011;38556;47.068;15.408;2023-03-08T10:28:57;35.88;;;32.88;;
1995;SDS011;38556;47.068;15.408;2023-03-08T10:31:25;36.20;;;33.08;;
1995;SDS011;38556;47.068;15.408;2023-03-08T10:34:00;36.53;;;33.60;;
1995;SDS011;38556;47.068;15.408;2023-03-08T10:36:33;38.70;;;35.10;;
1995;SDS011;38556;47.068;15.408;2023-03-08T10:39:12;38.35;;;35.22;;
1995;SDS011;38556;47.068;15.408;2023-03-08T10:41:41;38.63;;;35.58;;
1995;SDS011;38556;47.068;15.408;2023-03-08T10:44:12;37.72;;;34.33;;
1995;SDS011;38556;47.068;15.408;2023-03-08T10:46:45;39.40;;;35.90;;
1995;SDS011;38556;47.068;15.408;2023-03-08T10:49:14;40.78;;;36.88;;
1995;SDS011;38556;47.068;15.408;2023-03-08T10:54:45;37.40;;;34.03;;
1995;SDS011;38556;47.068;15.408;2023-03-08T10:57:16;37.40;;;34.30;;
1995;SDS011;38556;47.068;15.408;2023-03-08T10:59:46;34.72;;;31.80;;
1995;SDS011;38556;47.068;15.408;2023-03-08T11:02:16;36.30;;;33.22;;
1995;SDS011;38556;47.068;15.408;2023-03-08T11:04:50;34.88;;;31.80;;
1995;SDS011;38556;47.068;15.408;2023-03-08T11:07:22;37.47;;;33.92;;
1995;SDS011;38556;47.068;15.408;2023-03-08T11:09:51;37.42;;;34.17;;
1995;SDS011;38556;47.068;15.408;2023-03-08T11:12:29;37.53;;;34.05;;
1995;SDS011;38556;47.068;15.408;2023-03-08T11:14:57;39.17;;;35.70;;
1995;SDS011;38556;47.068;15.408;2023-03-08T11:17:25;37.10;;;33.70;;
1995;SDS011;38556;47.068;15.408;2023-03-08T11:20:02;38.17;;;34.88;;
1995;SDS011;38556;47.068;15.408;2023-03-08T11:22:46;37.53;;;34.53;;
1995;SDS011;38556;47.068;15.408;2023-03-08T11:25:25;37.58;;;34.30;;
1995;SDS011;38556;47.068;15.408;2023-03-08T11:28:07;37.35;;;34.25;;
1995;SDS011;38556;47.068;15.408;2023-03-08T11:30:50;38.55;;;35.20;;
1995;SDS011;38556;47.068;15.408;2023-03-08T11:33:31;37.38;;;34.13;;
1995;SDS011;38556;47.068;15.408;2023-03-08T11:36:08;36.80;;;33.67;;
1995;SDS011;38556;47.068;15.408;2023-03-08T11:38:45;38.95;;;34.75;;
1995;SDS011;38556;47.068;15.408;2023-03-08T11:41:20;37.35;;;34.15;;
1995;SDS011;38556;47.068;15.408;2023-03-08T11:44:02;35.70;;;32.65;;
1995;SDS011;38556;47.068;15.408;2023-03-08T11:46:55;34.40;;;31.70;;
1995;SDS011;38556;47.068;15.408;2023-03-08T11:49:40;33.30;;;30.67;;
1995;SDS011;38556;47.068;15.408;2023-03-08T11:52:21;33.00;;;30.20;;
1995;SDS011;38556;47.068;15.408;2023-03-08T11:55:01;32.92;;;30.23;;
1995;SDS011;38556;47.068;15.408;2023-03-08T11:57:36;33.17;;;30.63;;
1995;SDS011;38556;47.068;15.408;2023-03-08T12:00:11;32.72;;;30.20;;
1995;SDS011;38556;47.068;15.408;2023-03-08T12:02:49;32.72;;;30.48;;
1995;SDS011;38556;47.068;15.408;2023-03-08T12:05:21;35.85;;;33.10;;
1995;SDS011;38556;47.068;15.408;2023-03-08T12:07:54;36.63;;;33.47;;
1995;SDS011;38556;47.068;15.408;2023-03-08T12:10:29;35.22;;;32.03;;
1995;SDS011;38556;47.068;15.408;2023-03-08T12:13:10;35.33;;;32.60;;
1995;SDS011;38556;47.068;15.408;2023-03-08T12:15:44;35.65;;;32.67;;
1995;SDS011;38556;47.068;15.408;2023-03-08T12:18:15;35.60;;;33.00;;
1995;SDS011;38556;47.068;15.408;2023-03-08T12:20:46;34.03;;;31.58;;
1995;SDS011;38556;47.068;15.408;2023-03-08T12:23:19;36.20;;;33.53;;
1995;SDS011;38556;47.068;15.408;2023-03-08T12:25:55;38.22;;;35.22;;
1995;SDS011;38556;47.068;15.408;2023-03-08T12:28:29;36.78;;;33.97;;
1995;SDS011;38556;47.068;15.408;2023-03-08T12:31:02;35.85;;;33.25;;
1995;SDS011;38556;47.068;15.408;2023-03-08T12:33:38;37.03;;;33.88;;
1995;SDS011;38556;47.068;15.408;2023-03-08T12:36:06;33.63;;;31.25;;
1995;SDS011;38556;47.068;15.408;2023-03-08T12:38:35;33.90;;;31.27;;
1995;SDS011;38556;47.068;15.408;2023-03-08T12:41:17;34.75;;;31.83;;
1995;SDS011;38556;47.068;15.408;2023-03-08T12:43:56;34.60;;;31.90;;
1995;SDS011;38556;47.068;15.408;2023-03-08T12:46:26;33.67;;;31.08;;
1995;SDS011;38556;47.068;15.408;2023-03-08T12:48:53;34.95;;;32.05;;
1995;SDS011;38556;47.068;15.408;2023-03-08T12:51:22;47.80;;;41.42;;
1995;SDS011;38556;47.068;15.408;2023-03-08T12:53:57;40.75;;;36.47;;
1995;SDS011;38556;47.068;15.408;2023-03-08T12:56:29;37.90;;;34.70;;
1995;SDS011;38556;47.068;15.408;2023-03-08T12:58:58;42.15;;;38.10;;
1995;SDS011;38556;47.068;15.408;2023-03-08T13:01:32;36.35;;;33.30;;
1995;SDS011;38556;47.068;15.408;2023-03-08T13:04:02;35.42;;;32.55;;
1995;SDS011;38556;47.068;15.408;2023-03-08T13:06:56;34.88;;;32.17;;
1995;SDS011;38556;47.068;15.408;2023-03-08T13:09:36;33.85;;;30.83;;
1995;SDS011;38556;47.068;15.408;2023-03-08T13:15:22;34.35;;;31.65;;
1995;SDS011;38556;47.068;15.408;2023-03-08T13:17:55;31.98;;;29.58;;
1995;SDS011;38556;47.068;15.408;2023-03-08T13:20:32;33.45;;;30.65;;
1995;SDS011;38556;47.068;15.408;2023-03-08T13:23:19;52.00;;;46.65;;
1995;SDS011;38556;47.068;15.408;2023-03-08T13:25:53;38.38;;;35.08;;
1995;SDS011;38556;47.068;15.408;2023-03-08T13:28:33;31.90;;;29.60;;
1995;SDS011;38556;47.068;15.408;2023-03-08T13:31:02;52.38;;;47.05;;
1995;SDS011;38556;47.068;15.408;2023-03-08T13:33:36;34.70;;;31.85;;
1995;SDS011;38556;47.068;15.408;2023-03-08T13:36:13;56.40;;;33.70;;
1995;SDS011;38556;47.068;15.408;2023-03-08T13:38:44;35.75;;;33.05;;
1995;SDS011;38556;47.068;15.408;2023-03-08T13:41:29;32.65;;;29.88;;
1995;SDS011;38556;47.068;15.408;2023-03-08T13:44:03;31.40;;;29.17;;
1995;SDS011;38556;47.068;15.408;2023-03-08T13:46:31;31.83;;;29.55;;
1995;SDS011;38556;47.068;15.408;2023-03-08T13:48:59;30.80;;;28.50;;
1995;SDS011;38556;47.068;15.408;2023-03-08T13:51:27;27.95;;;25.92;;
1995;SDS011;38556;47.068;15.408;2023-03-08T13:53:56;29.47;;;27.37;;
1995;SDS011;38556;47.068;15.408;2023-03-08T13:56:24;28.20;;;26.10;;
1995;SDS011;38556;47.068;15.408;2023-03-08T13:58:53;28.48;;;26.05;;
1995;SDS011;38556;47.068;15.408;2023-03-08T14:01:24;27.73;;;25.75;;
1995;SDS011;38556;47.068;15.408;2023-03-08T14:03:53;27.60;;;25.60;;
1995;SDS011;38556;47.068;15.408;2023-03-08T14:06:23;26.38;;;24.52;;
1995;SDS011;38556;47.068;15.408;2023-03-08T14:08:53;29.05;;;27.00;;
1995;SDS011;38556;47.068;15.408;2023-03-08T14:11:24;27.77;;;25.70;;
1995;SDS011;38556;47.068;15.408;2023-03-08T14:13:54;27.27;;;25.15;;
1995;SDS011;38556;47.068;15.408;2023-03-08T14:16:25;28.17;;;26.27;;
1995;SDS011;38556;47.068;15.408;2023-03-08T14:18:56;27.40;;;25.50;;
1995;SDS011;38556;47.068;15.408;2023-03-08T14:21:25;26.60;;;24.60;;
1995;SDS011;38556;47.068;15.408;2023-03-08T14:23:55;27.90;;;25.85;;
1995;SDS011;38556;47.068;15.408;2023-03-08T14:26:25;27.27;;;25.05;;
1995;SDS011;38556;47.068;15.408;2023-03-08T14:29:01;25.85;;;24.10;;
1995;SDS011;38556;47.068;15.408;2023-03-08T14:31:31;26.38;;;24.67;;
1995;SDS011;38556;47.068;15.408;2023-03-08T14:33:59;26.30;;;24.40;;
1995;SDS011;38556;47.068;15.408;2023-03-08T14:36:28;27.30;;;25.30;;
1995;SDS011;38556;47.068;15.408;2023-03-08T14:38:57;27.38;;;24.70;;
1995;SDS011;38556;47.068;15.408;2023-03-08T14:41:29;25.83;;;24.03;;